Time;durP1;ratioP1;P1;durP2;ratioP2;P2;SDS_P1;SDS_P2;PMS_P1;PMS_P2;Temp;Humidity;BMP_temperature;BMP_pressure;BME280_temperature;BME280_humidity;BME280_pressure;Samples;Min_cycle;Max_cycle;Signal;HPM_P1;HPM_P2
2024/01/10 00:02:30;;;;;;;8.35;4.30;;;;;;;-9.98;92.77;101242.09;10259843;28;20051;-72
2024/01/10 00:07:31;;;;;;;9.52;3.13;;;;;;;-10.09;92.41;101236.19;10259355;28;20411;-72
2024/01/10 00:12:35;;;;;;;6.97;2.83;;;;;;;-10.64;92.62;101171.69;10257126;29;20042;-73
2024/01/10 00:17:36;;;;;;;5.25;2.20;;;;;;;-10.38;92.37;101217.66;10257214;29;20126;-72
2024/01/10 00:22:37;;;;;;;5.90;2.72;;;;;;;-10.57;92.24;101224.66;10258716;28;20403;-72
2024/01/10 00:27:38;;;;;;;4.90;2.00;;;;;;;-10.85;91.67;101218.91;10258434;29;20065;-72
2024/01/10 00:32:38;;;;;;;4.28;2.17;;;;;;;-10.80;92.28;101195.75;10257700;29;20043;-72
2024/01/10 00:37:39;;;;;;;7.60;3.90;;;;;;;-10.64;93.33;101197.34;10257401;29;20566;-72
2024/01/10 00:42:40;;;;;;;8.02;3.17;;;;;;;-10.69;92.82;101190.56;10255810;29;20153;-72
2024/01/10 00:47:40;;;;;;;7.45;3.60;;;;;;;-10.63;92.60;101178.50;10257448;28;20047;-72
2024/01/10 00:52:41;;;;;;;7.38;3.88;;;;;;;-10.70;92.53;101148.63;10257537;28;20043;-72
2024/01/10 00:57:42;;;;;;;5.80;2.90;;;;;;;-11.05;91.48;101129.25;10256778;29;20502;-71
2024/01/10 01:02:42;;;;;;;5.43;2.63;;;;;;;-10.98;91.80;101144.59;10256710;29;20130;-71
2024/01/10 01:07:43;;;;;;;6.13;2.17;;;;;;;-11.08;91.76;101124.13;10257343;29;20047;-72
2024/01/10 01:12:44;;;;;;;5.32;2.60;;;;;;;-11.47;91.69;101071.44;10255351;28;20128;-72
2024/01/10 01:17:44;;;;;;;6.50;2.70;;;;;;;-11.01;91.97;101118.97;10256022;29;20102;-72
2024/01/10 01:22:45;;;;;;;5.50;2.60;;;;;;;-10.96;92.01;101110.34;10256001;29;20042;-71
2024/01/10 01:27:46;;;;;;;8.48;2.53;;;;;;;-10.97;92.06;101110.38;10256426;29;20524;-72
2024/01/10 01:32:47;;;;;;;4.90;2.40;;;;;;;-11.03;92.10;101098.47;10255323;29;20039;-72
2024/01/10 01:37:48;;;;;;;4.82;2.40;;;;;;;-11.06;91.55;101099.34;10251844;28;20122;-72
2024/01/10 01:42:49;;;;;;;8.07;2.63;;;;;;;-11.87;90.84;100981.22;10250018;29;20408;-73
2024/01/10 01:47:50;;;;;;;7.10;2.13;;;;;;;-11.72;90.36;101034.91;10253777;28;20051;-72
2024/01/10 01:52:51;;;;;;;5.82;3.00;;;;;;;-11.34;91.60;101077.31;10255113;29;20178;-72
2024/01/10 01:57:51;;;;;;;5.88;2.60;;;;;;;-11.67;91.41;101004.09;10255105;29;20043;-73
2024/01/10 02:02:53;;;;;;;5.00;2.40;;;;;;;-11.35;91.39;101052.56;10254762;29;20113;-72
2024/01/10 02:07:55;;;;;;;5.55;2.63;;;;;;;-11.72;90.92;101006.69;10254034;28;20129;-72
2024/01/10 02:12:56;;;;;;;7.85;2.50;;;;;;;-11.42;91.07;101040.66;10251878;28;20492;-72
2024/01/10 02:17:56;;;;;;;4.50;2.42;;;;;;;-11.37;91.61;101055.13;10253551;29;20047;-72
2024/01/10 02:22:57;;;;;;;5.25;2.53;;;;;;;-11.40;91.28;101049.16;10252256;28;20039;-72
2024/01/10 02:27:58;;;;;;;5.88;2.70;;;;;;;-11.40;91.28;101046.59;10253211;29;20051;-73
2024/01/10 02:32:59;;;;;;;6.85;3.13;;;;;;;-11.37;90.75;101039.72;10253830;29;20392;-73
2024/01/10 02:38:00;;;;;;;5.45;2.78;;;;;;;-11.53;90.51;101038.16;10253596;28;20049;-73
2024/01/10 02:43:01;;;;;;;8.95;3.40;;;;;;;-11.85;90.75;100964.94;10253555;28;20110;-73
2024/01/10 02:48:01;;;;;;;19.00;3.22;;;;;;;-11.58;90.67;101020.25;10252504;29;20397;-73
2024/01/10 02:53:02;;;;;;;6.00;2.90;;;;;;;-11.47;90.61;101019.31;10253296;29;20051;-72
2024/01/10 02:58:03;;;;;;;7.80;3.45;;;;;;;-11.41;90.92;101029.53;10253143;29;20129;-74
2024/01/10 03:03:04;;;;;;;6.63;3.13;;;;;;;-11.59;91.05;100990.34;10245165;29;20376;-73
2024/01/10 03:08:06;;;;;;;7.72;3.58;;;;;;;-11.83;90.67;100947.84;10251353;28;20051;-73
2024/01/10 03:13:07;;;;;;;13.73;3.78;;;;;;;-12.08;90.50;100913.91;10252937;29;20050;-72
2024/01/10 03:18:07;;;;;;;10.13;4.18;;;;;;;-11.41;90.68;101006.44;10252333;28;20043;-73
2024/01/10 03:23:08;;;;;;;10.48;4.22;;;;;;;-11.41;90.75;101001.31;10252297;28;20066;-73
2024/01/10 03:28:09;;;;;;;8.40;4.00;;;;;;;-11.51;90.08;100990.31;10251992;28;20038;-72
2024/01/10 03:33:09;;;;;;;11.90;4.85;;;;;;;-11.77;90.25;100929.84;10250723;28;20640;-73
2024/01/10 03:38:10;;;;;;;7.18;3.38;;;;;;;-11.41;90.54;100968.00;10251752;28;20050;-75
2024/01/10 03:43:12;;;;;;;9.57;3.70;;;;;;;-11.43;90.72;100964.56;10249550;29;20055;-73
2024/01/10 03:48:13;;;;;;;12.15;3.63;;;;;;;-11.47;90.46;100955.22;10249569;28;20051;-76
2024/01/10 03:53:13;;;;;;;7.18;3.83;;;;;;;-11.59;89.79;100962.16;10250575;28;20040;-73
2024/01/10 03:58:14;;;;;;;6.82;3.35;;;;;;;-11.54;89.72;100970.66;10237778;28;20082;-72
2024/01/10 04:03:16;;;;;;;22.88;6.07;;;;;;;-11.81;88.88;100955.53;10251023;28;20073;-74
2024/01/10 04:08:17;;;;;;;186.30;53.40;;;;;;;-11.84;89.34;100961.50;10251104;29;20051;-74
2024/01/10 04:13:18;;;;;;;146.18;53.15;;;;;;;-12.03;89.35;100960.81;10250710;28;20051;-73
2024/01/10 04:18:19;;;;;;;72.88;26.90;;;;;;;-12.32;89.30;100917.50;10251053;28;20049;-72
2024/01/10 04:23:19;;;;;;;82.35;28.23;;;;;;;-12.38;88.47;100947.38;10250952;28;20036;-72
2024/01/10 04:28:20;;;;;;;76.43;26.65;;;;;;;-12.37;88.53;100965.31;10250461;28;20101;-70
2024/01/10 04:33:21;;;;;;;35.03;14.07;;;;;;;-12.42;89.38;100926.09;10250784;28;20809;-71
2024/01/10 04:38:25;;;;;;;26.38;10.50;;;;;;;-12.76;88.79;100887.91;10249683;28;20040;-75
2024/01/10 04:43:26;;;;;;;18.60;8.15;;;;;;;-12.35;88.97;100955.94;10251315;28;20509;-73
2024/01/10 04:48:27;;;;;;;18.80;7.03;;;;;;;-12.38;89.03;100947.38;10255209;28;20133;-71
2024/01/10 04:53:28;;;;;;;18.10;7.20;;;;;;;-12.29;89.04;100953.31;10257124;28;20047;-73
2024/01/10 04:58:29;;;;;;;13.48;4.30;;;;;;;-12.16;89.50;100943.00;10256853;28;20039;-73
2024/01/10 05:03:30;;;;;;;7.50;3.45;;;;;;;-12.21;89.03;100941.31;10256958;28;20039;-73
2024/01/10 05:08:31;;;;;;;8.88;3.42;;;;;;;-12.13;89.34;100913.09;10256985;28;20047;-73
2024/01/10 05:13:32;;;;;;;6.82;3.28;;;;;;;-12.20;89.10;100883.28;10256797;28;20045;-73
2024/01/10 05:18:34;;;;;;;8.98;3.83;;;;;;;-11.46;89.60;100915.88;10256718;28;20043;-74
2024/01/10 05:23:35;;;;;;;9.02;3.90;;;;;;;-11.57;89.18;100863.03;10255951;28;20424;-72
2024/01/10 05:28:36;;;;;;;8.73;3.90;;;;;;;-11.01;89.13;100899.13;10256550;28;20055;-73
2024/01/10 05:33:36;;;;;;;9.00;3.85;;;;;;;-10.71;89.27;100891.94;10255429;28;20051;-73
2024/01/10 05:38:38;;;;;;;8.25;4.20;;;;;;;-10.39;88.87;100897.47;10255235;28;20046;-73
2024/01/10 05:43:40;;;;;;;7.93;4.30;;;;;;;-10.10;89.29;100880.75;10255280;28;20113;-73
2024/01/10 05:48:40;;;;;;;9.20;3.85;;;;;;;-9.62;88.83;100880.78;10255548;28;20503;-73
2024/01/10 05:53:41;;;;;;;10.95;4.13;;;;;;;-9.37;88.35;100883.75;10254744;28;20098;-72
2024/01/10 05:58:42;;;;;;;7.72;4.10;;;;;;;-9.15;88.36;100871.34;10254388;28;20043;-72
2024/01/10 06:03:43;;;;;;;11.55;4.93;;;;;;;-8.83;88.42;100867.22;10254817;28;20070;-72
2024/01/10 06:08:43;;;;;;;9.98;4.38;;;;;;;-8.56;89.33;100846.00;10254967;28;20498;-73
2024/01/10 06:13:44;;;;;;;8.48;4.50;;;;;;;-8.24;88.59;100864.16;10255012;28;20082;-73
2024/01/10 06:18:45;;;;;;;9.05;4.50;;;;;;;-8.04;88.56;100867.13;10254270;28;20031;-73
2024/01/10 06:23:46;;;;;;;8.32;4.40;;;;;;;-7.83;88.33;100851.13;10253704;28;20047;-73
2024/01/10 06:28:47;;;;;;;8.60;4.90;;;;;;;-7.87;87.97;100815.13;10253639;28;20050;-74
2024/01/10 06:33:48;;;;;;;9.77;4.78;;;;;;;-7.35;88.22;100847.28;10253744;28;20039;-74
2024/01/10 06:38:49;;;;;;;12.82;4.55;;;;;;;-7.05;87.72;100836.97;10253071;28;20051;-74
2024/01/10 06:43:52;;;;;;;10.65;4.68;;;;;;;-7.08;87.59;100783.69;10254200;28;20087;-73
2024/01/10 06:48:53;;;;;;;11.05;5.10;;;;;;;-6.60;87.52;100829.59;10252730;28;20099;-72
2024/01/10 06:54:00;;;;;;;9.63;5.53;;;;;;;-6.23;87.29;100825.84;10252733;28;20106;-74
2024/01/10 06:59:01;;;;;;;12.25;5.40;;;;;;;-5.95;86.96;100804.22;10252371;28;20090;-73
2024/01/10 07:04:04;;;;;;;10.45;4.60;;;;;;;-5.80;87.10;100801.09;10252253;28;20043;-73
2024/01/10 07:09:05;;;;;;;10.02;4.45;;;;;;;-5.58;86.08;100781.31;10251286;28;20046;-73
2024/01/10 07:14:06;;;;;;;8.82;4.60;;;;;;;-5.51;85.93;100745.72;10251858;28;20058;-73
2024/01/10 07:19:07;;;;;;;7.65;4.40;;;;;;;-5.18;85.14;100730.66;10252527;28;20049;-73
2024/01/10 07:24:11;;;;;;;7.63;4.65;;;;;;;-4.90;83.95;100771.91;10251581;28;20142;-73
2024/01/10 07:29:12;;;;;;;7.75;3.88;;;;;;;-4.83;83.86;100762.13;10251399;28;20500;-73
2024/01/10 07:34:13;;;;;;;8.38;4.55;;;;;;;-4.76;83.61;100776.53;10251840;28;20039;-73
2024/01/10 07:39:18;;;;;;;7.88;4.68;;;;;;;-5.10;82.95;100783.03;10252146;28;20055;-73
2024/01/10 07:44:18;;;;;;;7.72;4.10;;;;;;;-5.39;82.86;100776.31;10251039;29;20051;-73
2024/01/10 07:49:21;;;;;;;6.50;3.80;;;;;;;-5.03;84.17;100772.41;10251622;28;20055;-73
2024/01/10 07:54:22;;;;;;;7.60;3.65;;;;;;;-4.74;83.22;100743.63;10250950;28;20523;-73
2024/01/10 07:59:24;;;;;;;7.03;3.50;;;;;;;-4.78;81.77;100723.94;10250960;28;20126;-73
2024/01/10 08:04:26;;;;;;;6.55;3.80;;;;;;;-4.61;81.86;100737.06;10251696;28;20047;-73
2024/01/10 08:09:26;;;;;;;9.75;3.90;;;;;;;-4.38;81.80;100722.31;10250609;28;20051;-73
2024/01/10 08:14:27;;;;;;;11.70;4.45;;;;;;;-4.14;82.17;100725.63;10251063;28;20050;-73
2024/01/10 08:19:28;;;;;;;10.70;4.20;;;;;;;-4.43;81.82;100617.91;10250696;28;20047;-73
2024/01/10 08:24:28;;;;;;;9.32;5.10;;;;;;;-3.67;82.05;100702.78;10258484;28;20094;-73
2024/01/10 08:29:31;;;;;;;9.88;5.75;;;;;;;-3.76;81.71;100640.91;10257879;28;20122;-73
2024/01/10 08:34:32;;;;;;;9.68;6.05;;;;;;;-3.27;82.13;100672.38;10258324;28;20058;-73
2024/01/10 08:39:32;;;;;;;11.07;5.90;;;;;;;-3.14;81.17;100675.28;10257619;28;20058;-73
2024/01/10 08:44:33;;;;;;;11.85;6.85;;;;;;;-3.06;81.82;100660.13;10258686;28;20059;-73
2024/01/10 08:49:34;;;;;;;12.43;7.15;;;;;;;-2.86;81.63;100645.34;10257288;28;20050;-73
2024/01/10 08:54:35;;;;;;;14.00;7.68;;;;;;;-2.82;81.67;100621.72;10257672;28;20047;-73
2024/01/10 08:59:36;;;;;;;15.82;8.63;;;;;;;-2.76;82.49;100633.56;10257492;28;20047;-74
2024/01/10 09:04:37;;;;;;;15.75;8.52;;;;;;;-3.06;83.22;100565.75;10256495;28;20411;-73
2024/01/10 09:09:37;;;;;;;14.68;8.05;;;;;;;-2.87;83.49;100579.53;10257572;28;20039;-73
2024/01/10 09:14:38;;;;;;;13.98;8.23;;;;;;;-3.04;84.18;100537.94;10256297;28;20043;-74
2024/01/10 09:19:39;;;;;;;16.10;8.75;;;;;;;-3.29;84.50;100541.75;10256231;28;20071;-73
2024/01/10 09:24:39;;;;;;;17.88;9.50;;;;;;;-3.10;85.50;100564.22;10255943;28;20146;-73
2024/01/10 09:29:40;;;;;;;17.52;9.85;;;;;;;-2.79;86.03;100556.56;10256561;28;20047;-73
2024/01/10 09:34:42;;;;;;;16.63;10.10;;;;;;;-2.88;85.75;100520.63;10253744;28;20462;-74
2024/01/10 09:39:42;;;;;;;17.45;10.98;;;;;;;-2.82;86.46;100524.69;10255425;28;20440;-74
2024/01/10 09:44:43;;;;;;;18.95;10.75;;;;;;;-2.86;86.82;100531.81;10256365;28;20055;-74
2024/01/10 09:49:46;;;;;;;19.40;10.77;;;;;;;-2.83;87.08;100518.66;10255188;28;20504;-75
2024/01/10 09:54:51;;;;;;;18.48;11.05;;;;;;;-2.80;87.39;100513.28;10254798;28;20047;-74
2024/01/10 09:59:54;;;;;;;22.45;12.27;;;;;;;-3.27;86.82;100467.16;10254608;28;20039;-74
2024/01/10 10:05:03;;;;;;;22.85;12.05;;;;;;;-3.28;87.92;100506.22;10254377;28;20043;-74
2024/01/10 10:10:05;;;;;;;22.92;13.23;;;;;;;-3.41;88.42;100493.00;10254781;28;20408;-74
2024/01/10 10:15:27;;;;;;;23.65;13.05;;;;;;;-3.25;89.12;100467.94;10254206;28;20040;-74
2024/01/10 10:20:38;;;;;;;23.05;12.82;;;;;;;-3.16;88.94;100489.19;10252818;29;20039;-74
2024/01/10 10:25:47;;;;;;;25.52;14.10;;;;;;;-3.07;88.97;100441.94;10253744;28;20054;-73
2024/01/10 10:30:48;;;;;;;20.90;12.77;;;;;;;-3.16;89.07;100419.03;10253754;28;20039;-74
2024/01/10 10:35:50;;;;;;;22.35;12.60;;;;;;;-2.82;88.83;100476.13;10253690;28;20054;-73
2024/01/10 10:40:51;;;;;;;25.63;12.98;;;;;;;-2.63;89.68;100460.41;10253967;28;20055;-73
2024/01/10 10:45:52;;;;;;;22.88;13.70;;;;;;;-2.76;88.93;100408.19;10252578;28;20048;-74
2024/01/10 10:51:08;;;;;;;22.27;12.75;;;;;;;-2.30;89.07;100446.53;10253256;28;20414;-74
2024/01/10 10:56:09;;;;;;;23.25;12.10;;;;;;;-2.34;88.86;100445.84;10252536;28;20043;-73
2024/01/10 11:01:14;;;;;;;24.40;13.70;;;;;;;-2.23;89.79;100457.44;10252506;28;20566;-74
2024/01/10 11:06:17;;;;;;;26.45;13.13;;;;;;;-2.08;89.66;100467.00;10250910;29;20047;-73
2024/01/10 11:11:42;;;;;;;24.80;13.48;;;;;;;-2.02;89.44;100455.41;10252113;28;20519;-74
2024/01/10 11:17:14;;;;;;;20.17;12.43;;;;;;;-2.07;88.95;100460.88;10252418;28;20043;-74
2024/01/10 11:22:52;;;;;;;18.85;11.85;;;;;;;-1.81;88.78;100454.22;10255692;28;20412;-74
2024/01/10 11:27:53;;;;;;;22.75;12.38;;;;;;;-1.73;88.55;100453.78;10252156;28;20054;-74
2024/01/10 11:32:56;;;;;;;20.80;11.00;;;;;;;-1.70;88.15;100438.81;10251909;28;20047;-73
2024/01/10 11:37:59;;;;;;;20.97;10.73;;;;;;;-1.63;87.80;100442.75;10251313;28;20523;-74
2024/01/10 11:43:00;;;;;;;17.85;10.77;;;;;;;-1.54;87.83;100450.97;10251186;28;20055;-74
2024/01/10 11:48:01;;;;;;;16.60;10.05;;;;;;;-1.53;87.30;100457.84;10251669;28;20794;-74
2024/01/10 11:53:03;;;;;;;17.02;10.18;;;;;;;-1.56;86.82;100448.44;10251076;28;20042;-74
2024/01/10 11:58:09;;;;;;;14.52;9.00;;;;;;;-1.53;86.10;100450.03;10258585;28;20039;-73
2024/01/10 12:03:12;;;;;;;13.43;8.23;;;;;;;-1.67;86.95;100414.38;10259040;28;20046;-74
2024/01/10 12:08:13;;;;;;;13.32;8.13;;;;;;;-1.50;85.69;100440.28;10258745;28;20129;-74
2024/01/10 12:13:14;;;;;;;17.42;7.47;;;;;;;-1.34;85.50;100460.25;10258706;28;20043;-74
2024/01/10 12:18:15;;;;;;;14.93;6.35;;;;;;;-1.32;86.37;100445.34;10259272;28;20039;-73
2024/01/10 12:23:16;;;;;;;15.48;6.40;;;;;;;-1.26;85.49;100444.97;10255611;28;20554;-73
2024/01/10 12:28:17;;;;;;;16.50;6.50;;;;;;;-1.27;85.64;100451.13;10257959;28;20098;-73
2024/01/10 12:33:23;;;;;;;8.95;4.95;;;;;;;-1.24;84.83;100464.00;10258223;29;20047;-73
2024/01/10 12:38:26;;;;;;;9.80;5.75;;;;;;;-1.23;84.74;100474.31;10235781;28;20042;-73
2024/01/10 12:43:27;;;;;;;9.45;4.90;;;;;;;-1.26;84.52;100455.41;10255597;29;20063;-73
2024/01/10 12:48:28;;;;;;;9.10;5.50;;;;;;;-1.86;84.82;100376.34;10242427;29;20048;-74
2024/01/10 12:53:28;;;;;;;16.58;6.10;;;;;;;-1.38;85.40;100468.25;10217511;29;20050;-74
2024/01/10 12:58:29;;;;;;;10.27;5.80;;;;;;;-1.51;85.71;100451.63;10215246;29;20044;-73
2024/01/10 13:03:30;;;;;;;10.23;6.00;;;;;;;-1.62;85.62;100449.63;10216237;29;20186;-75
2024/01/10 13:08:31;;;;;;;10.55;5.72;;;;;;;-1.58;85.89;100455.53;10241916;29;20531;-75
2024/01/10 13:13:32;;;;;;;11.30;5.50;;;;;;;-1.56;87.01;100458.88;10257045;28;20050;-76
2024/01/10 13:18:33;;;;;;;11.02;5.22;;;;;;;-1.61;86.64;100443.50;10256216;28;20045;-72
2024/01/10 13:23:34;;;;;;;46.42;20.77;;;;;;;-1.95;86.32;100397.69;10257114;29;20039;-73
2024/01/10 13:28:35;;;;;;;8.48;4.80;;;;;;;-1.93;86.49;100423.66;10256998;28;20051;-74
2024/01/10 13:33:37;;;;;;;8.43;4.00;;;;;;;-1.80;86.15;100476.72;10254899;28;20039;-74
2024/01/10 13:38:38;;;;;;;7.63;3.45;;;;;;;-1.99;86.05;100450.03;10255572;29;20478;-74
2024/01/10 13:43:40;;;;;;;7.38;2.75;;;;;;;-2.00;85.75;100462.22;10256154;29;20145;-75
2024/01/10 13:48:41;;;;;;;6.88;2.95;;;;;;;-2.18;84.22;100443.25;10254568;29;20058;-75
2024/01/10 13:53:42;;;;;;;5.50;2.47;;;;;;;-2.18;83.16;100460.63;10250998;29;20094;-75
2024/01/10 13:58:43;;;;;;;5.15;2.33;;;;;;;-2.28;83.13;100486.28;10255282;29;20077;-75
2024/01/10 14:03:43;;;;;;;4.72;2.08;;;;;;;-2.57;82.09;100444.50;10255244;29;20043;-75
2024/01/10 14:08:47;;;;;;;6.80;2.22;;;;;;;-2.75;80.47;100424.66;10252184;29;20130;-74
2024/01/10 14:13:48;;;;;;;6.07;2.00;;;;;;;-2.78;80.08;100430.03;10251835;29;20040;-76
2024/01/10 14:18:49;;;;;;;3.97;2.17;;;;;;;-2.95;80.76;100422.28;10254498;28;20134;-76
2024/01/10 14:23:49;;;;;;;5.45;2.30;;;;;;;-2.80;80.85;100468.25;10254675;29;20130;-76
2024/01/10 14:28:52;;;;;;;5.18;2.30;;;;;;;-2.87;80.11;100474.66;10253303;28;20050;-75
2024/01/10 14:33:53;;;;;;;6.53;2.75;;;;;;;-2.69;80.02;100524.88;10254158;28;20035;-73
2024/01/10 14:38:55;;;;;;;6.03;2.60;;;;;;;-2.81;80.20;100535.03;10254202;28;20407;-75
2024/01/10 14:43:56;;;;;;;8.32;2.60;;;;;;;-2.88;79.50;100556.19;10252809;28;20078;-76
2024/01/10 14:48:57;;;;;;;5.30;2.22;;;;;;;-3.02;79.79;100557.72;10252113;29;20462;-75
2024/01/10 14:53:58;;;;;;;7.30;2.55;;;;;;;-3.05;80.04;100573.47;10251490;29;20094;-75
2024/01/10 14:58:59;;;;;;;14.13;6.25;;;;;;;-3.06;80.14;100574.38;10243493;28;20039;-73
2024/01/10 15:03:59;;;;;;;84.25;35.53;;;;;;;-3.06;80.51;100576.13;10244051;29;20048;-79
2024/01/10 15:09:00;;;;;;;29.63;14.90;;;;;;;-3.05;80.81;100598.59;10251959;28;20047;-74
2024/01/10 15:14:01;;;;;;;12.45;6.57;;;;;;;-3.10;80.21;100603.22;10251343;28;20043;-72
2024/01/10 15:19:02;;;;;;;9.90;4.68;;;;;;;-3.13;80.46;100611.16;10251307;28;20055;-75
2024/01/10 15:24:03;;;;;;;6.95;3.20;;;;;;;-3.22;80.57;100613.28;10248870;29;20050;-77
2024/01/10 15:29:04;;;;;;;6.72;3.03;;;;;;;-3.77;80.21;100550.09;10251339;28;20055;-78
2024/01/10 15:34:06;;;;;;;10.27;2.70;;;;;;;-3.43;80.44;100627.28;10251735;28;20062;-74
2024/01/10 15:39:07;;;;;;;5.85;2.95;;;;;;;-3.61;80.67;100602.19;10251894;29;20043;-74
2024/01/10 15:44:09;;;;;;;5.75;2.92;;;;;;;-3.72;81.16;100577.53;10251877;29;20411;-75
2024/01/10 15:49:11;;;;;;;10.38;4.60;;;;;;;-3.26;80.70;100648.13;10251085;28;20496;-76
2024/01/10 15:54:12;;;;;;;8.75;3.05;;;;;;;-3.22;80.72;100651.41;10251210;28;20570;-75
2024/01/10 15:59:12;;;;;;;9.30;3.58;;;;;;;-3.10;80.93;100679.41;10234870;29;20043;-75
2024/01/10 16:04:13;;;;;;;7.22;3.30;;;;;;;-3.24;81.09;100646.28;10230162;29;20086;-75
2024/01/10 16:09:14;;;;;;;6.72;2.65;;;;;;;-3.18;80.91;100680.69;10251219;29;20054;-77
2024/01/10 16:14:15;;;;;;;4.30;2.70;;;;;;;-3.39;81.08;100670.38;10249779;29;20109;-73
2024/01/10 16:19:16;;;;;;;6.10;2.25;;;;;;;-3.47;80.20;100672.47;10250948;28;20039;-78
2024/01/10 16:24:17;;;;;;;5.55;2.33;;;;;;;-3.68;80.16;100650.91;10247697;28;20062;-76
2024/01/10 16:29:19;;;;;;;5.72;2.22;;;;;;;-3.47;79.06;100690.66;10230201;29;20077;-76
2024/01/10 16:34:20;;;;;;;4.25;2.08;;;;;;;-3.48;79.52;100714.94;10225639;28;20036;-75
2024/01/10 16:39:21;;;;;;;4.55;1.75;;;;;;;-3.72;78.69;100688.34;10222107;29;20055;-75
2024/01/10 16:44:21;;;;;;;4.13;1.50;;;;;;;-3.62;78.00;100705.19;10216707;29;20055;-75
2024/01/10 16:49:23;;;;;;;2.90;1.45;;;;;;;-3.60;76.32;100720.69;10239842;29;20046;-76
2024/01/10 16:54:24;;;;;;;4.03;1.77;;;;;;;-3.56;74.98;100730.03;10257759;29;20034;-76
2024/01/10 16:59:25;;;;;;;6.80;1.63;;;;;;;-3.83;73.59;100699.19;10240069;29;20059;-75
2024/01/10 17:04:26;;;;;;;11.82;2.30;;;;;;;-3.72;73.14;100748.88;10219184;29;20039;-75
2024/01/10 17:09:28;;;;;;;4.55;2.22;;;;;;;-3.77;73.59;100765.56;10217384;29;20417;-76
2024/01/10 17:14:29;;;;;;;5.03;2.50;;;;;;;-3.87;73.60;100785.88;10215539;29;20032;-75
2024/01/10 17:19:29;;;;;;;13.75;3.55;;;;;;;-4.23;74.65;100759.75;10237899;29;20141;-76
2024/01/10 17:24:31;;;;;;;7.47;3.25;;;;;;;-4.13;75.72;100789.56;10256192;29;20039;-75
2024/01/10 17:29:33;;;;;;;10.23;4.90;;;;;;;-4.40;77.60;100797.59;10255343;29;20051;-76
2024/01/10 17:34:34;;;;;;;12.30;4.93;;;;;;;-4.47;78.00;100805.66;10253839;29;20049;-76
2024/01/10 17:39:35;;;;;;;11.05;5.05;;;;;;;-4.56;78.78;100812.06;10256709;28;20050;-76
2024/01/10 17:44:37;;;;;;;12.50;4.63;;;;;;;-4.60;79.73;100807.91;10241659;29;20403;-75
2024/01/10 17:49:38;;;;;;;7.68;4.32;;;;;;;-4.78;80.27;100799.09;10215706;29;20073;-74
2024/01/10 17:54:38;;;;;;;6.65;3.80;;;;;;;-4.88;81.25;100832.28;10215922;29;20524;-73
2024/01/10 17:59:39;;;;;;;10.55;5.32;;;;;;;-5.22;82.43;100824.09;10253474;29;20039;-74
2024/01/10 18:04:41;;;;;;;12.68;6.88;;;;;;;-5.27;83.11;100840.63;10255423;28;20043;-77
2024/01/10 18:09:42;;;;;;;10.18;5.13;;;;;;;-5.30;83.85;100839.88;10254890;28;20050;-77
2024/01/10 18:14:43;;;;;;;11.00;5.90;;;;;;;-5.45;84.52;100845.59;10255913;28;20070;-77
2024/01/10 18:19:44;;;;;;;10.20;6.07;;;;;;;-5.41;85.70;100855.81;10254116;29;20046;-76
2024/01/10 18:24:45;;;;;;;12.13;6.55;;;;;;;-5.58;85.79;100846.03;10253100;29;20043;-76
2024/01/10 18:29:46;;;;;;;11.50;7.35;;;;;;;-5.55;86.48;100870.97;10253757;28;20503;-75
2024/01/10 18:34:47;;;;;;;16.20;7.20;;;;;;;-5.57;87.02;100878.78;10254143;28;20047;-76
2024/01/10 18:39:50;;;;;;;13.13;7.15;;;;;;;-5.49;86.70;100873.34;10253949;29;20035;-75
2024/01/10 18:44:51;;;;;;;10.38;5.63;;;;;;;-5.49;87.11;100863.00;10253207;28;20128;-75
2024/01/10 18:49:51;;;;;;;11.88;6.65;;;;;;;-5.61;87.16;100874.63;10252741;29;20063;-75
2024/01/10 18:54:52;;;;;;;13.05;7.25;;;;;;;-5.68;87.61;100875.72;10253499;29;20547;-77
2024/01/10 18:59:53;;;;;;;17.17;6.88;;;;;;;-5.86;87.82;100829.75;10252416;28;20090;-77
2024/01/10 19:04:54;;;;;;;9.13;6.05;;;;;;;-5.50;87.94;100887.22;10251784;28;20527;-78
2024/01/10 19:09:55;;;;;;;14.30;8.13;;;;;;;-5.52;88.31;100886.41;10252569;29;20039;-77
2024/01/10 19:14:55;;;;;;;12.63;6.78;;;;;;;-5.54;88.16;100872.66;10252970;29;20428;-78
2024/01/10 19:19:56;;;;;;;10.32;6.18;;;;;;;-5.55;88.98;100884.75;10251674;29;20050;-78
2024/01/10 19:24:57;;;;;;;11.50;6.65;;;;;;;-5.41;89.09;100891.22;10251850;29;20046;-76
2024/01/10 19:29:58;;;;;;;12.38;6.32;;;;;;;-5.30;89.31;100891.69;10251862;29;20054;-75
2024/01/10 19:34:59;;;;;;;9.00;5.30;;;;;;;-5.32;89.40;100877.97;10252344;29;20051;-75
2024/01/10 19:40:00;;;;;;;10.95;5.25;;;;;;;-5.24;89.38;100878.50;10250687;29;20538;-73
2024/01/10 19:45:01;;;;;;;11.80;6.85;;;;;;;-5.25;90.02;100883.75;10250761;28;20047;-75
2024/01/10 19:50:02;;;;;;;13.00;6.20;;;;;;;-5.17;89.80;100890.34;10251809;29;20053;-75
2024/01/10 19:55:03;;;;;;;11.75;6.43;;;;;;;-5.19;89.88;100884.38;10247910;29;20039;-73
2024/01/10 20:00:04;;;;;;;10.15;5.97;;;;;;;-5.02;90.34;100911.44;10251258;28;20047;-74
2024/01/10 20:05:05;;;;;;;10.23;5.35;;;;;;;-5.42;89.96;100843.75;10252009;28;20047;-74
2024/01/10 20:10:08;;;;;;;10.45;5.88;;;;;;;-4.98;90.23;100926.81;10249482;28;20082;-74
2024/01/10 20:15:09;;;;;;;11.60;6.00;;;;;;;-5.08;90.17;100913.34;10251388;28;20408;-74
2024/01/10 20:20:10;;;;;;;12.93;6.72;;;;;;;-5.34;90.58;100880.59;10259437;28;20067;-74
2024/01/10 20:25:11;;;;;;;13.73;6.43;;;;;;;-5.16;90.34;100919.69;10258774;28;20086;-74
2024/01/10 20:30:12;;;;;;;14.43;6.80;;;;;;;-5.10;90.94;100928.09;10258529;28;20060;-74
2024/01/10 20:35:13;;;;;;;12.13;7.43;;;;;;;-4.95;91.18;100962.13;10258013;28;20043;-74
2024/01/10 20:40:15;;;;;;;12.38;7.03;;;;;;;-5.00;90.99;100941.56;10257994;28;20486;-74
2024/01/10 20:45:18;;;;;;;13.07;7.65;;;;;;;-4.86;91.40;100957.47;10258224;28;20070;-74
2024/01/10 20:50:19;;;;;;;13.30;7.43;;;;;;;-5.15;91.41;100916.19;10257372;28;20094;-75
2024/01/10 20:55:20;;;;;;;12.30;6.35;;;;;;;-4.76;91.58;100983.06;10257107;28;20050;-75
2024/01/10 21:00:26;;;;;;;10.30;6.25;;;;;;;-4.68;92.01;100994.00;10257647;28;20377;-74
2024/01/10 21:05:26;;;;;;;11.32;6.95;;;;;;;-4.67;91.28;100980.13;10257399;28;20516;-75
2024/01/10 21:10:27;;;;;;;12.10;7.15;;;;;;;-4.93;91.51;100947.38;10257038;28;20047;-73
2024/01/10 21:15:28;;;;;;;12.48;6.68;;;;;;;-4.69;91.66;100992.31;10256444;28;20043;-74
2024/01/10 21:20:29;;;;;;;12.13;7.57;;;;;;;-4.71;91.94;100997.53;10256620;28;20035;-74
2024/01/10 21:25:30;;;;;;;11.38;6.57;;;;;;;-4.87;91.76;100950.59;10256920;28;20043;-75
2024/01/10 21:30:30;;;;;;;12.35;7.20;;;;;;;-4.65;92.04;100979.16;10256049;28;20053;-75
2024/01/10 21:35:31;;;;;;;13.68;7.68;;;;;;;-4.81;91.84;100952.13;10255686;28;20118;-74
2024/01/10 21:40:32;;;;;;;9.63;6.22;;;;;;;-4.48;92.43;101006.25;10255268;28;20066;-74
2024/01/10 21:45:33;;;;;;;11.23;6.97;;;;;;;-4.54;91.92;100996.09;10255429;28;20165;-74
2024/01/10 21:50:34;;;;;;;13.35;7.40;;;;;;;-4.80;92.41;100955.56;10255816;28;20039;-75
2024/01/10 21:55:34;;;;;;;12.98;7.68;;;;;;;-4.37;92.47;101022.25;10255573;28;20039;-74
2024/01/10 22:00:35;;;;;;;12.50;7.50;;;;;;;-4.33;92.53;101021.25;10254858;28;20069;-74
2024/01/10 22:05:35;;;;;;;14.40;7.03;;;;;;;-4.76;92.32;100942.41;10255080;28;20407;-74
2024/01/10 22:10:36;;;;;;;11.70;6.70;;;;;;;-4.38;92.31;101016.22;10254517;28;20051;-75
2024/01/10 22:15:37;;;;;;;15.00;8.00;;;;;;;-4.35;92.81;101023.03;10254710;28;20090;-74
2024/01/10 22:20:38;;;;;;;18.55;9.93;;;;;;;-4.28;93.15;101024.50;10254531;28;20078;-74
2024/01/10 22:25:38;;;;;;;16.65;9.10;;;;;;;-4.56;92.54;100987.53;10253797;28;20067;-74
2024/01/10 22:30:39;;;;;;;16.65;9.32;;;;;;;-4.30;92.88;101036.69;10254029;28;20500;-75
2024/01/10 22:35:40;;;;;;;16.95;9.85;;;;;;;-4.32;92.55;101048.88;10253854;28;20039;-74
2024/01/10 22:40:41;;;;;;;16.38;9.20;;;;;;;-4.33;92.53;101049.78;10253612;28;20066;-74
2024/01/10 22:45:41;;;;;;;19.92;10.32;;;;;;;-4.33;92.13;101044.59;10253095;28;20043;-74
2024/01/10 22:50:42;;;;;;;17.73;9.45;;;;;;;-4.31;92.17;101042.75;10253661;28;20051;-74